Time;durP1;ratioP1;P1;durP2;ratioP2;P2;SDS_P1;SDS_P2;PMS_P1;PMS_P2;Temp;Humidity;BMP_temperature;BMP_pressure;BME280_temperature;BME280_humidity;BME280_pressure;Samples;Min_cycle;Max_cycle;Signal;HPM_P1;HPM_P2
2022/06/22 00:01:15;;;;;;;5.03;3.15;;;;;;;24.31;31.68;99822.34;5073340;28;20074;-64
2022/06/22 00:03:41;;;;;;;4.10;2.70;;;;;;;24.27;31.77;99812.31;5055586;28;20021;-64
2022/06/22 00:06:10;;;;;;;5.53;3.17;;;;;;;24.28;31.55;99822.09;5071835;28;20431;-64
2022/06/22 00:08:37;;;;;;;5.78;2.80;;;;;;;24.26;31.62;99818.88;5059292;28;20055;-64
2022/06/22 00:11:10;;;;;;;4.70;2.67;;;;;;;24.23;31.63;99820.25;5076439;28;20028;-64
2022/06/22 00:13:35;;;;;;;4.88;2.60;;;;;;;24.25;31.35;99818.06;5074016;28;20470;-64
2022/06/22 00:16:03;;;;;;;7.18;3.33;;;;;;;24.26;31.58;99819.66;5055265;28;20033;-64
2022/06/22 00:18:43;;;;;;;6.40;2.95;;;;;;;24.27;31.63;99821.31;5056382;28;20105;-64
2022/06/22 00:21:26;;;;;;;5.38;2.92;;;;;;;24.27;31.29;99815.03;5056195;28;20021;-64
2022/06/22 00:23:53;;;;;;;3.97;2.65;;;;;;;24.26;31.42;99816.94;5054702;28;20037;-64
2022/06/22 00:26:26;;;;;;;5.55;3.00;;;;;;;24.21;31.33;99810.75;5056365;28;20090;-64
2022/06/22 00:29:02;;;;;;;3.85;2.28;;;;;;;24.27;31.15;99815.03;5056054;28;20060;-64
2022/06/22 00:31:37;;;;;;;4.40;2.63;;;;;;;24.26;31.28;99811.47;5056292;28;20032;-64
2022/06/22 00:34:06;;;;;;;4.70;2.80;;;;;;;24.24;31.23;99802.78;5055051;28;20029;-64
2022/06/22 00:37:00;;;;;;;4.47;2.53;;;;;;;24.25;31.40;99804.41;5055769;28;20029;-64
2022/06/22 00:39:30;;;;;;;4.88;3.15;;;;;;;24.26;31.18;99813.41;5051543;28;20045;-64
2022/06/22 00:41:56;;;;;;;3.55;2.45;;;;;;;24.23;31.07;99803.88;5054911;28;20033;-64
2022/06/22 00:44:23;;;;;;;4.03;2.50;;;;;;;24.23;31.09;99803.06;5056080;28;20119;-64
2022/06/22 00:47:07;;;;;;;3.75;2.22;;;;;;;24.23;30.96;99808.53;5054991;28;20021;-64
2022/06/22 00:49:33;;;;;;;4.13;2.58;;;;;;;24.24;30.98;99810.16;5056107;28;20477;-64
2022/06/22 00:52:00;;;;;;;5.00;2.38;;;;;;;24.23;30.99;99803.88;5054785;28;20017;-64
2022/06/22 00:54:27;;;;;;;4.30;2.53;;;;;;;24.21;30.86;99806.09;5054749;28;20036;-64
2022/06/22 00:57:11;;;;;;;4.15;2.42;;;;;;;24.23;30.80;99803.06;5056106;28;20044;-64
2022/06/22 00:59:48;;;;;;;4.25;2.42;;;;;;;24.21;30.81;99802.56;5038345;28;20063;-64
2022/06/22 01:02:35;;;;;;;4.25;2.53;;;;;;;24.22;30.71;99802.25;5055671;28;20037;-64
2022/06/22 01:05:28;;;;;;;3.42;2.30;;;;;;;24.22;30.97;99801.47;5054739;28;20033;-65
2022/06/22 01:08:15;;;;;;;5.20;2.50;;;;;;;24.23;30.70;99798.41;5054423;28;20048;-65
2022/06/22 01:12:16;;;;;;;5.63;2.97;;;;;;;24.24;30.66;99793.78;5055594;28;20104;-64
2022/06/22 01:13:53;;;;;;;3.25;2.22;;;;;;;24.23;30.85;99803.06;5057554;28;20067;-65
2022/06/22 01:16:22;;;;;;;4.65;2.38;;;;;;;24.21;30.84;99794.34;5074238;28;20028;-65
2022/06/22 01:19:21;;;;;;;4.18;2.45;;;;;;;24.23;30.76;99795.69;5057325;28;20037;-65
2022/06/22 01:21:51;;;;;;;3.58;2.47;;;;;;;24.21;30.50;99795.16;5032940;28;20142;-65
2022/06/22 01:24:53;;;;;;;7.00;2.95;;;;;;;24.22;30.52;99806.91;5016457;28;20534;-65
2022/06/22 01:27:21;;;;;;;4.97;2.72;;;;;;;24.19;30.67;99803.63;5032762;28;20065;-65
2022/06/22 01:29:51;;;;;;;3.85;2.30;;;;;;;24.18;30.51;99807.50;5032869;28;20029;-65
2022/06/22 01:32:26;;;;;;;4.15;2.58;;;;;;;24.17;30.74;99805.84;5032987;28;20045;-64
2022/06/22 01:34:54;;;;;;;4.97;2.78;;;;;;;24.18;30.57;99807.50;5017847;28;20499;-64
2022/06/22 01:37:42;;;;;;;5.40;2.70;;;;;;;24.21;30.26;99805.28;5016401;28;20053;-64
2022/06/22 01:40:20;;;;;;;6.13;2.92;;;;;;;24.18;30.27;99804.75;5016820;28;20112;-64
2022/06/22 01:43:01;;;;;;;3.95;2.40;;;;;;;24.19;30.20;99808.31;5032781;28;20035;-64
2022/06/22 01:45:59;;;;;;;3.50;2.33;;;;;;;24.18;30.55;99807.50;5032634;28;20129;-64
2022/06/22 01:48:43;;;;;;;5.60;2.63;;;;;;;24.19;30.17;99800.91;4957923;28;20085;-64
2022/06/22 01:51:27;;;;;;;3.25;2.28;;;;;;;24.17;30.27;99805.06;4974036;28;20437;-64
2022/06/22 01:53:54;;;;;;;4.47;2.80;;;;;;;24.16;30.46;99806.97;4973983;28;20031;-64
2022/06/22 01:56:29;;;;;;;4.25;2.50;;;;;;;24.18;30.37;99812.13;4974036;28;20050;-65
2022/06/22 01:59:28;;;;;;;4.18;2.40;;;;;;;24.17;30.42;99803.13;4994011;28;20058;-64
2022/06/22 02:01:55;;;;;;;5.55;2.80;;;;;;;24.16;30.47;99809.72;4998809;28;20049;-65
2022/06/22 02:04:35;;;;;;;3.67;2.22;;;;;;;24.17;30.34;99805.84;4996038;28;20436;-65
2022/06/22 02:10:16;;;;;;;4.63;2.38;;;;;;;24.17;30.41;99805.84;4999085;28;20053;-65
2022/06/22 02:12:45;;;;;;;3.25;2.00;;;;;;;24.15;30.15;99813.53;5012418;28;20034;-65
2022/06/22 02:15:19;;;;;;;3.88;2.38;;;;;;;24.15;30.47;99810.00;5000355;28;20030;-65
2022/06/22 02:17:44;;;;;;;3.97;2.10;;;;;;;24.13;30.47;99810.28;4992551;28;20381;-65
2022/06/22 02:20:19;;;;;;;2.75;1.95;;;;;;;24.13;30.18;99813.03;4992493;28;20105;-65
2022/06/22 02:22:45;;;;;;;5.15;2.55;;;;;;;24.12;30.38;99811.38;4992395;28;20073;-64
2022/06/22 02:25:11;;;;;;;4.25;2.33;;;;;;;24.14;30.48;99802.91;5032939;28;20098;-64
2022/06/22 02:27:36;;;;;;;2.30;1.70;;;;;;;24.14;30.26;99809.16;5052738;28;20025;-64
2022/06/22 02:30:02;;;;;;;3.05;1.90;;;;;;;24.14;30.17;99809.16;5053399;28;20319;-64
2022/06/22 02:32:31;;;;;;;3.00;2.13;;;;;;;24.12;30.32;99814.13;5053960;28;20100;-64
2022/06/22 02:34:57;;;;;;;2.95;2.10;;;;;;;24.13;30.19;99813.03;5052693;28;20116;-64
2022/06/22 02:37:26;;;;;;;2.92;1.70;;;;;;;24.12;30.28;99808.66;5054918;28;20025;-65
2022/06/22 02:39:53;;;;;;;3.53;2.13;;;;;;;24.14;30.39;99811.09;5054704;28;20032;-65
2022/06/22 02:45:04;;;;;;;;;;;;;;;24.22;30.78;99824.09;5057379;28;20035;-62
2022/06/22 02:47:31;;;;;;;2.58;1.70;;;;;;;24.17;30.51;99827.69;5057721;28;20325;-64
2022/06/22 02:50:44;;;;;;;3.33;1.90;;;;;;;24.15;30.93;99829.91;5054554;28;20073;-64
2022/06/22 02:53:24;;;;;;;4.78;1.88;;;;;;;24.15;31.01;99826.38;5011979;28;20063;-64
2022/06/22 02:55:50;;;;;;;5.78;2.10;;;;;;;24.13;30.95;99826.66;5011837;28;20054;-64
2022/06/22 02:58:32;;;;;;;3.78;2.13;;;;;;;24.12;30.94;99822.31;5011815;28;20157;-64
2022/06/22 03:00:59;;;;;;;2.78;2.00;;;;;;;24.12;30.97;99830.50;5012301;28;20033;-64
2022/06/22 03:03:24;;;;;;;3.55;2.25;;;;;;;24.11;31.23;99823.44;5012581;28;20038;-64
2022/06/22 03:05:51;;;;;;;3.35;2.22;;;;;;;24.13;31.33;99823.94;5012434;28;20530;-64
2022/06/22 03:08:18;;;;;;;4.18;2.55;;;;;;;24.15;31.23;99837.31;4995989;28;20037;-64
2022/06/22 03:11:03;;;;;;;3.47;2.30;;;;;;;24.11;31.57;99834.34;5012154;28;20038;-64
2022/06/22 03:13:37;;;;;;;4.95;2.40;;;;;;;24.10;31.50;99835.44;5012045;28;20045;-64
2022/06/22 03:16:03;;;;;;;5.30;2.97;;;;;;;24.13;31.64;99831.31;5012429;28;20108;-64
2022/06/22 03:18:29;;;;;;;5.57;2.53;;;;;;;24.12;31.72;99835.94;5012274;28;20029;-64
2022/06/22 03:21:00;;;;;;;5.20;2.85;;;;;;;24.13;31.81;99834.84;5012363;28;20045;-65
2022/06/22 03:24:02;;;;;;;4.65;2.85;;;;;;;24.15;32.25;99842.75;5011813;28;20034;-64
2022/06/22 03:26:32;;;;;;;5.03;3.20;;;;;;;24.10;32.12;99838.16;5012159;28;20041;-64
2022/06/22 03:29:05;;;;;;;4.97;2.67;;;;;;;24.12;32.11;99835.16;5015919;28;20036;-64
2022/06/22 03:32:09;;;;;;;5.50;3.05;;;;;;;24.16;32.45;99833.44;5052921;28;20530;-64
2022/06/22 03:34:43;;;;;;;5.40;2.83;;;;;;;24.14;32.13;99833.72;5053116;28;20139;-65
2022/06/22 03:37:11;;;;;;;6.60;2.87;;;;;;;24.16;32.15;99839.75;5035415;28;20036;-64
2022/06/22 03:39:38;;;;;;;5.55;3.10;;;;;;;24.21;32.48;99844.31;5052798;28;20079;-66
2022/06/22 03:42:11;;;;;;;5.88;3.05;;;;;;;24.18;32.22;99843.00;5056417;28;20104;-67
2022/06/22 03:45:04;;;;;;;4.17;2.57;;;;;;;24.23;32.71;99849.47;5055463;28;20103;-67
2022/06/22 03:47:51;;;;;;;6.57;3.03;;;;;;;24.24;33.00;99848.38;5053163;28;20131;-67
2022/06/22 03:50:48;;;;;;;5.03;2.60;;;;;;;24.28;33.11;99852.16;5056974;28;20032;-67
2022/06/22 03:54:00;;;;;;;3.63;2.58;;;;;;;24.27;33.07;99853.25;5034701;28;20107;-67
2022/06/22 03:56:29;;;;;;;4.90;2.60;;;;;;;24.24;33.12;99854.66;5030717;28;20038;-67
2022/06/22 03:58:54;;;;;;;5.10;2.72;;;;;;;24.27;33.32;99848.59;5034624;28;20079;-68
2022/06/22 04:01:21;;;;;;;3.67;2.63;;;;;;;24.27;33.41;99858.72;5034425;28;20022;-66
2022/06/22 04:03:46;;;;;;;4.32;2.40;;;;;;;24.27;33.21;99856.81;5017996;28;20048;-67
2022/06/22 04:06:36;;;;;;;4.00;2.28;;;;;;;24.34;32.85;99861.91;5001552;28;20025;-67
2022/06/22 04:09:04;;;;;;;4.13;2.10;;;;;;;24.30;33.44;99864.41;5010576;28;20057;-67
2022/06/22 04:11:58;;;;;;;3.90;2.42;;;;;;;24.30;33.81;99864.41;5034485;28;20080;-67
2022/06/22 04:14:56;;;;;;;2.38;1.83;;;;;;;24.31;33.51;99868.75;5021580;28;20033;-66
2022/06/22 04:17:41;;;;;;;2.55;1.83;;;;;;;24.32;33.38;99861.41;5033543;28;20033;-68
2022/06/22 04:20:49;;;;;;;3.80;1.63;;;;;;;24.33;33.55;99863.00;5034140;28;20113;-68
2022/06/22 04:23:17;;;;;;;2.90;1.73;;;;;;;24.32;33.84;99864.94;5033924;28;20112;-67
2022/06/22 04:25:42;;;;;;;2.33;1.77;;;;;;;24.32;33.98;99864.13;5017494;28;20030;-67
2022/06/22 04:28:09;;;;;;;3.08;2.03;;;;;;;24.33;33.75;99866.53;5017704;28;20388;-67
2022/06/22 04:30:46;;;;;;;2.08;1.55;;;;;;;24.33;33.53;99863.00;5049942;28;20430;-67
2022/06/22 04:33:22;;;;;;;3.33;1.73;;;;;;;24.30;33.72;99864.41;5055701;28;20021;-67
2022/06/22 04:36:01;;;;;;;2.15;1.90;;;;;;;24.34;33.86;99864.66;5054707;28;20056;-67
2022/06/22 04:38:38;;;;;;;3.22;1.80;;;;;;;24.40;33.66;99863.44;5038858;28;20471;-67
2022/06/22 04:41:23;;;;;;;1.80;1.48;;;;;;;24.38;33.78;99860.22;5056315;28;20474;-67
2022/06/22 04:43:49;;;;;;;2.05;1.85;;;;;;;24.38;34.45;99866.47;5055016;28;20044;-67
2022/06/22 04:46:17;;;;;;;1.98;1.77;;;;;;;24.39;33.94;99872.78;5054271;28;20025;-67
2022/06/22 04:48:46;;;;;;;2.53;1.92;;;;;;;24.38;33.90;99863.75;5054253;28;20040;-67
2022/06/22 04:51:15;;;;;;;1.95;1.60;;;;;;;24.41;33.96;99864.28;5054225;28;20025;-67
2022/06/22 04:53:52;;;;;;;2.03;1.67;;;;;;;24.42;33.94;99872.16;5036781;28;20017;-67
2022/06/22 04:56:22;;;;;;;1.70;1.42;;;;;;;24.43;34.35;99862.06;5038559;28;20140;-66
2022/06/22 04:58:51;;;;;;;2.03;1.50;;;;;;;24.43;34.34;99873.81;5038544;28;20029;-67
2022/06/22 05:01:25;;;;;;;2.72;1.40;;;;;;;24.44;34.19;99871.88;5055552;28;20112;-67
2022/06/22 05:03:51;;;;;;;2.63;1.77;;;;;;;24.45;34.00;99879.78;5055416;28;20032;-67
2022/06/22 05:06:20;;;;;;;1.40;1.27;;;;;;;24.42;34.62;99876.81;5054268;28;20055;-68
2022/06/22 05:08:53;;;;;;;1.35;1.25;;;;;;;24.41;35.01;99878.75;5054483;28;20069;-68
2022/06/22 05:11:21;;;;;;;2.85;1.67;;;;;;;24.42;34.75;99880.34;5037561;28;20086;-67
2022/06/22 05:13:51;;;;;;;2.00;1.80;;;;;;;24.45;34.26;99879.78;5054250;28;20025;-67
2022/06/22 05:16:23;;;;;;;5.50;2.60;;;;;;;24.41;34.68;99877.94;5071722;28;20032;-69
2022/06/22 05:18:52;;;;;;;4.20;2.17;;;;;;;24.44;34.89;99877.34;5058269;28;20111;-66
2022/06/22 05:21:30;;;;;;;3.30;2.28;;;;;;;24.37;35.50;99886.72;5074775;28;20085;-64
2022/06/22 05:23:57;;;;;;;6.05;2.50;;;;;;;24.41;35.80;99878.75;5073901;28;20045;-64
2022/06/22 05:26:23;;;;;;;6.68;3.70;;;;;;;24.43;35.29;99887.44;5073579;28;20120;-64
2022/06/22 05:28:49;;;;;;;17.15;5.32;;;;;;;24.49;35.08;99894.50;5073706;28;20031;-64
2022/06/22 05:31:16;;;;;;;12.38;5.85;;;;;;;24.48;35.33;99894.78;5073457;28;20024;-65
2022/06/22 05:33:44;;;;;;;12.68;5.72;;;;;;;24.43;35.88;99883.91;5074831;28;20032;-64
2022/06/22 05:36:11;;;;;;;17.33;6.63;;;;;;;24.42;35.50;99887.75;5074931;28;20029;-64
2022/06/22 05:38:38;;;;;;;13.40;6.03;;;;;;;24.42;35.71;99885.00;5075003;28;20100;-64
2022/06/22 05:41:04;;;;;;;20.67;8.23;;;;;;;24.41;35.16;99881.47;5074476;28;20027;-65
2022/06/22 05:43:31;;;;;;;24.13;9.45;;;;;;;24.43;35.13;99884.72;5073802;28;20331;-65
2022/06/22 05:45:56;;;;;;;24.55;9.60;;;;;;;24.47;34.98;99879.50;5073833;28;20039;-65
2022/06/22 05:48:24;;;;;;;20.33;9.05;;;;;;;24.47;35.47;99880.28;5073377;28;20108;-64
2022/06/22 05:51:25;;;;;;;19.20;8.82;;;;;;;24.48;35.53;99881.13;5073018;28;20069;-65
2022/06/22 05:54:10;;;;;;;27.10;10.52;;;;;;;24.51;35.44;99880.53;5031827;28;20044;-64
2022/06/22 05:56:39;;;;;;;32.42;10.43;;;;;;;24.52;34.77;99882.16;5032089;28;20133;-64
2022/06/22 05:59:07;;;;;;;25.52;11.13;;;;;;;24.57;34.71;99886.78;5032097;28;20057;-64
2022/06/22 06:02:14;;;;;;;30.67;11.57;;;;;;;24.53;34.56;99881.88;5032276;28;20030;-64
2022/06/22 06:04:43;;;;;;;24.63;8.85;;;;;;;24.51;34.30;99892.28;5014481;28;20037;-63
2022/06/22 06:07:15;;;;;;;44.42;15.82;;;;;;;24.49;34.09;99886.28;5015131;28;20041;-65
2022/06/22 06:09:41;;;;;;;25.13;11.10;;;;;;;24.48;34.14;99884.66;5015153;28;20060;-64
2022/06/22 06:12:27;;;;;;;25.00;10.00;;;;;;;24.52;33.62;99891.16;5031933;28;20033;-64
2022/06/22 06:14:52;;;;;;;28.20;11.18;;;;;;;24.50;33.17;99887.91;5010286;28;20416;-64
2022/06/22 06:17:35;;;;;;;21.70;8.48;;;;;;;24.49;32.71;99891.75;4995832;28;20080;-63
2022/06/22 06:20:00;;;;;;;22.95;10.70;;;;;;;24.55;33.07;99893.34;5012742;28;20037;-63
2022/06/22 06:22:28;;;;;;;15.05;7.05;;;;;;;24.53;32.21;99884.59;4996168;28;20034;-64
2022/06/22 06:27:47;;;;;;;16.40;7.38;;;;;;;24.60;31.84;99895.19;4998376;28;20114;-65
2022/06/22 06:30:19;;;;;;;14.25;7.90;;;;;;;24.57;31.92;99890.31;5032982;28;20047;-65
2022/06/22 06:32:59;;;;;;;16.33;7.63;;;;;;;24.65;31.67;99902.53;5053801;28;20605;-64
2022/06/22 06:35:52;;;;;;;21.73;10.52;;;;;;;24.68;31.53;99902.75;5052086;28;20025;-64
2022/06/22 06:38:30;;;;;;;18.73;8.23;;;;;;;24.72;31.14;99903.78;5049520;28;20044;-64
2022/06/22 06:41:09;;;;;;;12.82;6.75;;;;;;;24.66;30.73;99904.13;5053667;28;20414;-64
2022/06/22 06:43:44;;;;;;;15.73;7.10;;;;;;;24.67;30.76;99903.03;5052562;28;20063;-65
2022/06/22 06:46:34;;;;;;;17.27;7.50;;;;;;;24.68;30.78;99907.38;5053133;28;20025;-66
2022/06/22 06:49:50;;;;;;;19.65;9.00;;;;;;;24.70;31.12;99900.53;5052575;28;20435;-64
2022/06/22 06:52:31;;;;;;;23.50;10.60;;;;;;;24.70;30.99;99895.06;5039286;28;20029;-65
2022/06/22 06:55:19;;;;;;;22.38;9.65;;;;;;;24.76;30.96;99904.00;5034710;28;20032;-64
2022/06/22 06:58:17;;;;;;;24.85;10.35;;;;;;;24.74;30.93;99907.03;5051226;28;20040;-66
2022/06/22 07:00:42;;;;;;;25.05;10.35;;;;;;;24.76;30.94;99901.25;5034341;28;20037;-65
2022/06/22 07:03:15;;;;;;;38.40;13.98;;;;;;;24.71;30.51;99910.34;5050870;28;20116;-65
2022/06/22 07:05:41;;;;;;;28.25;11.00;;;;;;;24.70;30.63;99910.66;5034045;28;20551;-65
2022/06/22 07:08:28;;;;;;;42.63;15.68;;;;;;;24.77;30.37;99907.53;5050517;28;20041;-65
2022/06/22 07:11:02;;;;;;;47.92;17.00;;;;;;;24.76;30.52;99914.13;5018041;28;20037;-65
2022/06/22 07:13:44;;;;;;;44.83;17.13;;;;;;;24.74;30.22;99908.94;5034016;28;20033;-66
2022/06/22 07:16:14;;;;;;;57.75;21.50;;;;;;;24.74;30.04;99914.41;5050086;28;20041;-66
2022/06/22 07:18:45;;;;;;;61.03;20.77;;;;;;;24.74;30.18;99911.69;5050219;28;20037;-64
2022/06/22 07:21:52;;;;;;;46.55;16.65;;;;;;;24.79;29.97;99914.34;5033769;28;20029;-67
2022/06/22 07:24:34;;;;;;;106.95;40.10;;;;;;;24.85;30.28;99917.81;5026581;28;20050;-66
2022/06/22 07:27:19;;;;;;;53.27;20.97;;;;;;;24.87;30.40;99916.44;5033313;28;20057;-66
2022/06/22 07:29:54;;;;;;;61.08;23.90;;;;;;;24.85;30.33;99918.66;5032834;28;20065;-66
2022/06/22 07:32:38;;;;;;;64.13;21.83;;;;;;;24.87;29.94;99916.44;5031528;28;20026;-67
2022/06/22 07:35:13;;;;;;;;;;;;;;;24.93;29.89;99917.97;5033076;28;20059;-64
2022/06/22 07:37:41;;;;;;;29.65;11.73;;;;;;;24.88;29.83;99911.75;5032590;28;20440;-64
2022/06/22 07:40:11;;;;;;;20.42;9.23;;;;;;;24.88;29.61;99919.97;5031305;28;20029;-65
2022/06/22 07:42:37;;;;;;;23.85;8.65;;;;;;;24.87;30.00;99921.88;5031661;28;20026;-65
2022/06/22 07:45:03;;;;;;;18.63;7.43;;;;;;;24.86;29.90;99920.25;5032834;28;20375;-65
2022/06/22 07:47:29;;;;;;;13.65;7.13;;;;;;;24.89;29.99;99925.13;5032459;28;20084;-65
2022/06/22 07:49:58;;;;;;;17.75;7.22;;;;;;;24.88;29.57;99926.22;5032367;28;20472;-65
2022/06/22 07:52:32;;;;;;;13.90;5.85;;;;;;;24.92;29.65;99924.56;5032373;28;20033;-66
2022/06/22 07:55:28;;;;;;;10.90;4.75;;;;;;;24.91;29.77;99920.19;5030980;28;20029;-65
2022/06/22 07:58:05;;;;;;;10.65;5.35;;;;;;;24.96;29.48;99923.94;5015906;28;20518;-65
2022/06/22 08:00:30;;;;;;;15.25;6.85;;;;;;;24.98;29.40;99930.75;5032156;28;20037;-65
2022/06/22 08:03:20;;;;;;;19.75;8.50;;;;;;;24.97;29.71;99928.31;5033793;28;20029;-66
2022/06/22 08:05:46;;;;;;;26.13;10.60;;;;;;;24.94;29.42;99932.47;5017598;28;20025;-67
2022/06/22 08:08:35;;;;;;;17.38;8.02;;;;;;;24.92;29.68;99927.28;5031361;28;20021;-64
2022/06/22 08:11:19;;;;;;;17.80;8.32;;;;;;;24.93;29.55;99928.09;5031324;28;20125;-66
2022/06/22 08:13:51;;;;;;;15.48;6.90;;;;;;;24.96;29.37;99927.50;5032417;28;20056;-65
2022/06/22 08:16:31;;;;;;;12.95;5.50;;;;;;;25.00;29.34;99933.19;5025812;28;20037;-65
2022/06/22 08:18:56;;;;;;;10.23;4.43;;;;;;;24.91;29.38;99928.38;5032453;28;20017;-65
2022/06/22 08:21:22;;;;;;;10.20;4.18;;;;;;;25.01;29.45;99940.28;5033436;28;20044;-64
2022/06/22 08:23:48;;;;;;;9.30;3.75;;;;;;;24.99;29.52;99940.59;5032126;28;20050;-64
2022/06/22 08:26:19;;;;;;;7.15;3.10;;;;;;;24.92;29.61;99940.94;5015493;28;20464;-64
2022/06/22 08:28:44;;;;;;;4.38;2.30;;;;;;;24.96;29.29;99937.59;5018053;28;20029;-64
2022/06/22 08:31:10;;;;;;;4.00;2.20;;;;;;;24.96;29.11;99937.59;5036163;28;20025;-64
2022/06/22 08:33:40;;;;;;;2.03;1.60;;;;;;;25.01;29.02;99945.72;5034567;28;20038;-65
2022/06/22 08:36:26;;;;;;;4.53;1.75;;;;;;;24.93;29.04;99939.81;5036536;28;20045;-64
2022/06/22 08:39:03;;;;;;;2.33;1.55;;;;;;;25.05;28.93;99942.13;5019768;28;20494;-64
2022/06/22 08:42:15;;;;;;;2.83;1.52;;;;;;;24.98;29.01;99943.63;5035097;28;20360;-64
2022/06/22 08:45:11;;;;;;;5.78;1.65;;;;;;;25.04;28.51;99936.94;5035767;28;20033;-64
2022/06/22 08:47:40;;;;;;;1.73;1.40;;;;;;;25.03;28.50;99936.16;5035749;28;20022;-64
2022/06/22 08:50:08;;;;;;;1.88;1.27;;;;;;;25.01;28.46;99940.28;5035283;28;20448;-64
2022/06/22 08:52:52;;;;;;;2.05;1.20;;;;;;;25.02;28.55;99937.25;5035223;28;20082;-65
2022/06/22 08:55:23;;;;;;;1.90;1.20;;;;;;;25.04;28.55;99936.94;5035524;28;20021;-65
2022/06/22 08:58:01;;;;;;;1.50;1.00;;;;;;;25.00;28.48;99935.94;5035056;28;20026;-65
2022/06/22 09:00:35;;;;;;;1.23;0.90;;;;;;;25.04;28.48;99931.47;5035448;28;20029;-64
2022/06/22 09:03:30;;;;;;;1.83;1.08;;;;;;;25.11;28.46;99934.66;5033890;28;20091;-64
2022/06/22 09:06:10;;;;;;;1.05;0.90;;;;;;;25.06;28.23;99930.09;5034884;28;20045;-64
2022/06/22 09:08:57;;;;;;;1.10;1.00;;;;;;;25.01;28.52;99924.69;5035451;28;20036;-65
2022/06/22 09:11:30;;;;;;;1.80;0.85;;;;;;;24.98;28.35;99933.50;5035283;28;20118;-65
2022/06/22 09:14:12;;;;;;;1.38;0.98;;;;;;;25.06;28.49;99934.72;5035416;28;20021;-64
2022/06/22 09:17:00;;;;;;;1.33;1.10;;;;;;;25.10;28.26;99933.06;5052219;28;20029;-65
2022/06/22 09:20:03;;;;;;;3.55;1.10;;;;;;;25.10;28.12;99933.06;5032746;28;20029;-65
2022/06/22 09:22:57;;;;;;;2.65;1.23;;;;;;;25.03;28.07;99943.53;5032800;28;20557;-65
2022/06/22 09:25:25;;;;;;;5.95;1.70;;;;;;;24.99;28.42;99940.59;5032460;28;20045;-65
2022/06/22 09:28:01;;;;;;;5.07;1.90;;;;;;;25.03;27.88;99932.63;5032486;28;20033;-65
2022/06/22 09:30:47;;;;;;;3.60;1.30;;;;;;;25.09;27.86;99939.63;5032760;28;20073;-65
2022/06/22 09:33:34;;;;;;;1.95;1.40;;;;;;;25.11;27.79;99948.31;5032532;28;20029;-66
2022/06/22 09:36:36;;;;;;;2.40;1.40;;;;;;;25.12;28.03;99945.31;5017851;28;20032;-65
2022/06/22 09:39:21;;;;;;;1.90;1.15;;;;;;;25.07;27.59;99947.31;5032021;28;20025;-65
2022/06/22 09:41:58;;;;;;;;;;;;;;;25.17;27.56;99941.69;5016686;28;20600;-65
2022/06/22 09:44:33;;;;;;;11.10;4.28;;;;;;;25.00;27.67;99946.88;5032376;28;19944;-65
2022/06/22 09:47:17;;;;;;;11.80;5.03;;;;;;;25.05;27.71;99942.13;5032434;28;20420;-66
2022/06/22 09:49:57;;;;;;;51.30;12.60;;;;;;;25.08;27.44;99943.47;5031884;28;20377;-65
2022/06/22 09:52:23;;;;;;;22.10;7.95;;;;;;;25.08;27.56;99943.47;5032186;28;20045;-65
2022/06/22 09:58:03;;;;;;;9.57;3.55;;;;;;;25.07;27.58;99939.09;5074277;28;20173;-65
2022/06/22 10:00:50;;;;;;;9.73;3.50;;;;;;;24.97;27.36;99948.25;5074558;28;20035;-65
2022/06/22 10:03:43;;;;;;;3.45;2.10;;;;;;;24.96;27.95;99945.81;5073246;28;20028;-65
2022/06/22 10:06:13;;;;;;;4.78;2.33;;;;;;;24.99;27.66;99945.22;5058869;28;20036;-65
2022/06/22 10:08:47;;;;;;;18.20;6.10;;;;;;;25.02;27.74;99947.38;5074267;28;20036;-65
2022/06/22 10:11:44;;;;;;;18.83;7.05;;;;;;;25.08;27.89;99948.94;5074039;28;20103;-65
2022/06/22 10:14:40;;;;;;;13.60;4.78;;;;;;;25.03;27.90;99946.28;5067339;28;20045;-65
2022/06/22 10:17:33;;;;;;;13.38;4.90;;;;;;;25.08;28.00;99951.69;5054452;28;20029;-65
2022/06/22 10:20:20;;;;;;;14.88;4.60;;;;;;;25.10;28.02;99943.97;5054119;28;20048;-65
2022/06/22 10:23:05;;;;;;;28.50;5.93;;;;;;;25.07;28.44;99948.09;5053635;28;20060;-65
2022/06/22 10:25:36;;;;;;;10.15;3.50;;;;;;;25.03;28.41;99952.56;5053245;28;20045;-65
2022/06/22 10:28:31;;;;;;;14.85;4.00;;;;;;;25.02;29.39;99947.38;5053509;28;20040;-64
2022/06/22 10:31:07;;;;;;;39.85;6.35;;;;;;;25.01;29.26;99949.31;5052971;28;20025;-64
2022/06/22 10:33:56;;;;;;;17.05;3.72;;;;;;;25.04;29.07;99956.09;5053976;28;20051;-64
2022/06/22 10:36:38;;;;;;;6.90;2.47;;;;;;;25.02;28.69;99952.84;5053707;28;20362;-64
2022/06/22 10:39:13;;;;;;;5.38;1.70;;;;;;;25.00;28.54;99950.41;5051994;28;20029;-64
2022/06/22 10:45:09;;;;;;;6.10;1.83;;;;;;;25.07;28.42;99955.50;5053029;28;20040;-64
2022/06/22 10:48:00;;;;;;;5.13;1.90;;;;;;;25.10;28.28;99946.72;5047211;28;20052;-64
2022/06/22 10:50:34;;;;;;;6.72;1.83;;;;;;;25.01;28.65;99954.78;5052126;28;20086;-65
2022/06/22 10:53:31;;;;;;;2.88;1.50;;;;;;;25.07;28.51;99947.31;5052858;28;20052;-64
2022/06/22 10:56:02;;;;;;;2.78;1.40;;;;;;;25.04;28.24;99945.16;5051771;28;20029;-65
2022/06/22 10:59:02;;;;;;;2.22;1.23;;;;;;;25.08;28.13;99938.00;5052799;28;20120;-64
2022/06/22 11:02:10;;;;;;;3.58;1.25;;;;;;;25.05;28.12;99933.94;5052602;28;20037;-64
2022/06/22 11:04:45;;;;;;;2.55;1.20;;;;;;;25.05;28.37;99933.13;5010598;28;20038;-64
2022/06/22 11:07:51;;;;;;;1.10;1.00;;;;;;;25.11;28.30;99935.50;5042879;28;20037;-64
2022/06/22 11:10:30;;;;;;;1.50;1.00;;;;;;;25.11;28.27;99931.91;5051622;28;20479;-64
2022/06/22 11:13:17;;;;;;;0.75;0.75;;;;;;;25.11;28.11;99935.50;5051847;28;20029;-64
2022/06/22 11:15:51;;;;;;;0.90;0.88;;;;;;;25.08;28.20;99935.28;5059535;28;20103;-64
2022/06/22 11:18:25;;;;;;;1.02;0.90;;;;;;;25.09;28.57;99937.72;5072808;28;20028;-63
2022/06/22 11:21:30;;;;;;;0.95;0.90;;;;;;;25.08;28.53;99938.00;5072720;28;20039;-65
2022/06/22 11:24:30;;;;;;;1.05;0.82;;;;;;;25.09;28.46;99934.16;5071817;28;20044;-65
2022/06/22 11:32:58;;;;;;;1.30;1.08;;;;;;;25.12;28.75;99925.34;5072169;28;20063;-65
2022/06/22 11:35:47;;;;;;;26.65;3.42;;;;;;;25.12;28.68;99934.38;5072347;28;20033;-65
2022/06/22 11:38:37;;;;;;;8.15;1.77;;;;;;;25.08;28.56;99927.88;5070822;28;20111;-65
2022/06/22 11:41:34;;;;;;;6.35;1.70;;;;;;;25.09;28.76;99934.16;5056870;28;20069;-64
2022/06/22 11:44:18;;;;;;;3.40;1.77;;;;;;;25.09;28.30;99939.63;5070909;28;20057;-64
2022/06/22 11:46:52;;;;;;;7.57;2.15;;;;;;;25.12;28.71;99934.38;5072330;28;20100;-63
2022/06/22 11:49:32;;;;;;;6.57;2.67;;;;;;;25.05;28.48;99935.84;5072065;28;20471;-63
2022/06/22 11:52:10;;;;;;;12.45;5.15;;;;;;;25.11;28.60;99932.75;5071220;28;20044;-63
2022/06/22 11:55:14;;;;;;;18.95;6.55;;;;;;;25.12;28.16;99937.09;5072177;28;20033;-63
2022/06/22 11:57:47;;;;;;;8.88;3.85;;;;;;;25.14;28.27;99925.88;5071781;28;20045;-63
2022/06/22 12:00:18;;;;;;;8.45;2.95;;;;;;;25.12;28.16;99928.91;5072238;28;20443;-64
2022/06/22 12:02:56;;;;;;;12.70;2.75;;;;;;;25.16;28.06;99931.03;5075152;28;20112;-64
2022/06/22 12:05:24;;;;;;;5.55;2.35;;;;;;;25.15;27.73;99923.94;5076353;28;20024;-63
2022/06/22 12:08:12;;;;;;;5.90;2.33;;;;;;;25.16;27.87;99918.19;5076534;28;20032;-64
2022/06/22 12:10:59;;;;;;;2.88;1.83;;;;;;;25.17;27.73;99928.00;5033830;28;20045;-63
2022/06/22 12:13:30;;;;;;;4.05;1.38;;;;;;;25.19;27.81;99919.53;5034014;28;20399;-64
2022/06/22 12:16:17;;;;;;;8.70;1.70;;;;;;;25.22;27.65;99924.41;5026199;28;20030;-64
2022/06/22 12:19:20;;;;;;;5.43;1.77;;;;;;;25.33;27.80;99925.09;4997646;28;20033;-64
2022/06/22 12:22:18;;;;;;;7.57;1.88;;;;;;;25.30;27.52;99924.56;5014105;28;20038;-64
2022/06/22 12:25:15;;;;;;;2.38;1.15;;;;;;;25.29;27.54;99920.19;4936216;29;20057;-63
2022/06/22 12:27:48;;;;;;;3.10;1.00;;;;;;;25.25;27.85;99921.06;4936414;29;20071;-63
2022/06/22 12:30:17;;;;;;;2.17;0.95;;;;;;;25.25;27.70;99921.91;4920946;29;20070;-63
2022/06/22 12:32:49;;;;;;;1.45;1.02;;;;;;;25.30;27.50;99918.28;4936453;29;20027;-63
2022/06/22 12:35:36;;;;;;;0.80;0.70;;;;;;;25.27;27.65;99911.50;4936338;29;20039;-64
2022/06/22 12:38:24;;;;;;;1.30;0.90;;;;;;;25.26;27.20;99918.06;4936136;29;20063;-64
2022/06/22 12:41:01;;;;;;;3.30;1.27;;;;;;;25.31;27.42;99925.38;4935960;29;20043;-64
2022/06/22 12:44:03;;;;;;;5.90;1.50;;;;;;;25.35;27.34;99917.38;4936693;29;20038;-64